Time;durP1;ratioP1;P1;durP2;ratioP2;P2;SDS_P1;SDS_P2;PMS_P1;PMS_P2;Temp;Humidity;BMP_temperature;BMP_pressure;BME280_temperature;BME280_humidity;BME280_pressure;Samples;Min_cycle;Max_cycle;Signal;HPM_P1;HPM_P2
2023/09/04 00:02:02;;;;;;;2.13;2.13;;;22.70;75.30;;;;;;5065937;28;43494;-78
2023/09/04 00:04:30;;;;;;;2.10;2.10;;;22.70;75.30;;;;;;5065946;28;43853;-77
2023/09/04 00:07:00;;;;;;;2.30;2.20;;;22.70;75.40;;;;;;5063002;28;45800;-77
2023/09/04 00:09:28;;;;;;;2.20;2.20;;;22.60;75.80;;;;;;5064858;28;44737;-78
2023/09/04 00:11:56;;;;;;;2.00;2.00;;;22.60;75.80;;;;;;5063357;28;43508;-79
2023/09/04 00:14:24;;;;;;;2.00;2.00;;;22.70;76.20;;;;;;5066022;28;43681;-78
2023/09/04 00:16:52;;;;;;;2.10;2.10;;;22.70;75.90;;;;;;5063708;28;46086;-78
2023/09/04 00:19:20;;;;;;;2.37;2.37;;;22.80;75.10;;;;;;5063784;28;44705;-78
2023/09/04 00:21:48;;;;;;;2.23;2.20;;;22.80;75.10;;;;;;5066890;28;43450;-78
2023/09/04 00:24:20;;;;;;;2.10;2.10;;;22.70;76.10;;;;;;5066902;28;43376;-77
2023/09/04 00:26:48;;;;;;;2.00;2.00;;;22.70;75.30;;;;;;5066023;28;46268;-77
2023/09/04 00:29:16;;;;;;;1.97;1.97;;;22.70;75.30;;;;;;5060275;28;45017;-77
2023/09/04 00:31:44;;;;;;;2.30;2.30;;;22.70;76.00;;;;;;5065567;28;43373;-77
2023/09/04 00:34:15;;;;;;;2.13;2.13;;;22.60;75.30;;;;;;5067001;28;43511;-77
2023/09/04 00:36:43;;;;;;;2.27;2.27;;;22.60;75.80;;;;;;5066092;28;43896;-77
2023/09/04 00:39:11;;;;;;;2.20;2.20;;;22.60;75.80;;;;;;5060597;28;45021;-77
2023/09/04 00:41:42;;;;;;;1.90;1.90;;;22.60;75.70;;;;;;5065697;28;43870;-76
2023/09/04 00:44:10;;;;;;;2.10;2.10;;;22.60;75.60;;;;;;5064787;28;43473;-77
2023/09/04 00:46:38;;;;;;;2.10;2.10;;;22.50;75.70;;;;;;5062308;28;45772;-74
2023/09/04 00:49:06;;;;;;;2.10;2.10;;;22.50;76.10;;;;;;5057337;28;45113;-73
2023/09/04 00:51:34;;;;;;;2.10;2.10;;;22.60;75.90;;;;;;5059354;28;43404;-74
2023/09/04 00:54:03;;;;;;;2.13;2.13;;;22.70;75.60;;;;;;5057528;28;43479;-72
2023/09/04 00:56:31;;;;;;;2.10;2.10;;;22.90;75.00;;;;;;5063307;28;45971;-77
2023/09/04 00:59:00;;;;;;;1.93;1.93;;;22.90;74.70;;;;;;5058521;28;44576;-77
2023/09/04 01:01:28;;;;;;;2.30;2.30;;;22.90;74.60;;;;;;5064601;28;43390;-77
2023/09/04 01:03:56;;;;;;;2.03;2.03;;;22.90;74.80;;;;;;5060342;28;43606;-78
2023/09/04 01:06:25;;;;;;;2.00;2.00;;;22.80;74.90;;;;;;5069090;28;45422;-78
2023/09/04 01:08:55;;;;;;;2.33;2.33;;;22.70;75.30;;;;;;5066081;28;45380;-76
2023/09/04 01:11:28;;;;;;;2.00;2.00;;;22.70;75.40;;;;;;5068919;28;43428;-78
2023/09/04 01:13:56;;;;;;;2.00;2.00;;;22.70;75.50;;;;;;5062983;28;43442;-78
2023/09/04 01:16:25;;;;;;;2.17;2.17;;;22.60;75.30;;;;;;5085939;28;44112;-77
2023/09/04 01:18:54;;;;;;;1.80;1.80;;;22.60;75.60;;;;;;5082454;28;43757;-77
2023/09/04 01:21:23;;;;;;;2.03;2.03;;;22.50;75.90;;;;;;5068475;28;43400;-77
2023/09/04 01:23:52;;;;;;;2.03;2.03;;;22.60;75.70;;;;;;5069427;28;43561;-77
2023/09/04 01:26:24;;;;;;;2.00;2.00;;;22.70;75.40;;;;;;5068913;28;43853;-77
2023/09/04 01:28:57;;;;;;;2.10;2.10;;;22.70;75.30;;;;;;5068460;28;44571;-76
2023/09/04 01:31:30;;;;;;;1.83;1.83;;;22.70;75.30;;;;;;5066059;28;43419;-77
2023/09/04 01:34:03;;;;;;;2.10;2.10;;;22.60;75.50;;;;;;5065550;28;43521;-77
2023/09/04 01:36:32;;;;;;;1.90;1.90;;;22.70;75.60;;;;;;5067095;28;44367;-79
2023/09/04 01:39:01;;;;;;;1.90;1.90;;;22.60;76.20;;;;;;5066702;28;44396;-78
2023/09/04 01:41:29;;;;;;;1.90;1.90;;;22.60;75.40;;;;;;5067106;28;43531;-78
2023/09/04 01:43:57;;;;;;;2.00;2.00;;;22.60;75.80;;;;;;5057244;28;43588;-76
2023/09/04 01:46:26;;;;;;;2.20;2.20;;;22.60;76.00;;;;;;5064298;28;45537;-78
2023/09/04 01:48:54;;;;;;;2.00;2.00;;;22.60;76.00;;;;;;5068993;28;44001;-76
2023/09/04 01:51:22;;;;;;;1.90;1.90;;;22.60;75.80;;;;;;5067218;28;43640;-78
2023/09/04 01:53:52;;;;;;;2.00;2.00;;;22.50;75.80;;;;;;5069758;28;43390;-78
2023/09/04 01:56:21;;;;;;;1.93;1.93;;;22.50;76.10;;;;;;5066076;28;45475;-76
2023/09/04 01:58:49;;;;;;;2.33;2.33;;;22.60;75.90;;;;;;5066114;28;44692;-78
2023/09/04 02:01:17;;;;;;;2.10;2.10;;;22.70;75.40;;;;;;5066333;28;44023;-77
2023/09/04 02:03:45;;;;;;;1.93;1.93;;;22.80;74.90;;;;;;5066718;28;43520;-78
2023/09/04 02:06:13;;;;;;;2.00;2.00;;;23.00;74.50;;;;;;5067628;28;44948;-77
2023/09/04 02:08:42;;;;;;;1.97;1.97;;;23.00;74.40;;;;;;5070042;28;43426;-77
2023/09/04 02:11:12;;;;;;;2.07;2.07;;;22.90;74.40;;;;;;5068443;28;43449;-77
2023/09/04 02:13:40;;;;;;;2.10;2.10;;;22.90;74.60;;;;;;5068593;28;43447;-77
2023/09/04 02:16:08;;;;;;;1.97;1.97;;;22.80;75.10;;;;;;5062290;28;45657;-77
2023/09/04 02:18:38;;;;;;;1.83;1.83;;;22.70;75.10;;;;;;5066914;28;43525;-77
2023/09/04 02:21:06;;;;;;;2.00;2.00;;;22.70;75.20;;;;;;5068381;28;43502;-77
2023/09/04 02:23:34;;;;;;;1.83;1.83;;;22.70;75.30;;;;;;5068188;28;43440;-77
2023/09/04 02:26:02;;;;;;;1.83;1.83;;;22.60;75.40;;;;;;5067456;28;45421;-77
2023/09/04 02:28:31;;;;;;;2.10;2.10;;;22.60;75.80;;;;;;5068356;28;43592;-77
2023/09/04 02:31:06;;;;;;;1.80;1.80;;;22.60;76.50;;;;;;5061857;28;43431;-77
2023/09/04 02:33:34;;;;;;;1.90;1.90;;;22.60;75.70;;;;;;5059372;28;43595;-78
2023/09/04 02:36:01;;;;;;;2.03;2.03;;;22.50;75.50;;;;;;5062187;28;45736;-76
2023/09/04 02:38:29;;;;;;;2.00;1.90;;;22.50;76.10;;;;;;5067432;28;44749;-78
2023/09/04 02:40:57;;;;;;;1.83;1.83;;;22.50;75.80;;;;;;5085017;28;43554;-77
2023/09/04 02:43:25;;;;;;;2.00;2.00;;;22.70;75.60;;;;;;5068527;28;43435;-78
2023/09/04 02:45:57;;;;;;;2.10;2.10;;;22.80;75.00;;;;;;5061407;28;45315;-77
2023/09/04 02:48:25;;;;;;;1.93;1.93;;;22.90;75.40;;;;;;5084774;28;44385;-78
2023/09/04 02:50:58;;;;;;;1.93;1.93;;;22.90;74.50;;;;;;5067800;28;43403;-78
2023/09/04 02:53:28;;;;;;;2.13;2.13;;;22.90;74.60;;;;;;5062202;28;43953;-77
2023/09/04 02:55:57;;;;;;;2.07;2.07;;;22.80;74.80;;;;;;5066317;28;45686;-77
2023/09/04 02:58:26;;;;;;;2.00;2.00;;;22.70;75.20;;;;;;5055074;28;43897;-77
2023/09/04 03:00:56;;;;;;;2.13;2.13;;;22.70;75.30;;;;;;5061060;28;43823;-77
2023/09/04 03:03:24;;;;;;;2.00;2.00;;;22.70;75.30;;;;;;5065135;28;43572;-77
2023/09/04 03:05:52;;;;;;;2.07;2.07;;;22.60;75.20;;;;;;5057353;28;45455;-74
2023/09/04 03:08:21;;;;;;;1.80;1.80;;;22.60;75.80;;;;;;5067148;28;43403;-74
2023/09/04 03:10:50;;;;;;;2.10;2.10;;;22.60;75.80;;;;;;5062173;28;44086;-74
2023/09/04 03:13:18;;;;;;;2.07;2.07;;;22.60;75.80;;;;;;5065560;28;43543;-74
2023/09/04 03:15:47;;;;;;;1.77;1.77;;;22.50;75.70;;;;;;5067328;28;46053;-77
2023/09/04 03:18:17;;;;;;;2.93;2.20;;;22.50;75.70;;;;;;5066461;28;43498;-78
2023/09/04 03:20:45;;;;;;;1.87;1.87;;;22.50;76.40;;;;;;5056255;28;43505;-77
2023/09/04 03:23:14;;;;;;;2.00;2.00;;;22.50;75.80;;;;;;5064722;28;43539;-78
2023/09/04 03:25:42;;;;;;;2.03;2.03;;;22.70;75.40;;;;;;5065392;28;45876;-78
2023/09/04 03:28:10;;;;;;;2.13;2.00;;;22.70;75.10;;;;;;5064121;28;43995;-77
2023/09/04 03:30:39;;;;;;;1.83;1.83;;;22.70;75.10;;;;;;5060262;28;43518;-76
2023/09/04 03:33:07;;;;;;;2.00;2.00;;;22.70;75.20;;;;;;5062654;28;43454;-78
2023/09/04 03:35:38;;;;;;;2.10;2.10;;;22.70;75.40;;;;;;5057179;28;45838;-77
2023/09/04 03:38:06;;;;;;;2.00;2.00;;;22.70;75.30;;;;;;5053110;28;44314;-77
2023/09/04 03:40:35;;;;;;;1.97;1.97;;;22.70;75.40;;;;;;5062220;28;43610;-77
2023/09/04 03:43:03;;;;;;;1.90;1.90;;;22.70;75.30;;;;;;5062043;28;43604;-78
2023/09/04 03:45:35;;;;;;;2.10;2.10;;;22.60;75.70;;;;;;5061188;28;45837;-77
2023/09/04 03:48:03;;;;;;;1.80;1.80;;;22.60;75.80;;;;;;5063255;28;45102;-77
2023/09/04 03:50:33;;;;;;;2.03;2.03;;;22.60;75.80;;;;;;5057788;28;43431;-77
2023/09/04 03:53:04;;;;;;;2.20;2.10;;;22.60;75.50;;;;;;5066891;28;43386;-78
2023/09/04 03:55:32;;;;;;;2.07;2.07;;;22.60;75.60;;;;;;5064306;28;43729;-77
2023/09/04 03:58:01;;;;;;;2.03;2.03;;;22.50;75.60;;;;;;5064217;28;43372;-79
2023/09/04 04:00:30;;;;;;;1.97;1.97;;;22.60;75.50;;;;;;5066936;28;43471;-77
2023/09/04 04:03:00;;;;;;;1.90;1.90;;;22.60;74.90;;;;;;5070999;28;43583;-78
2023/09/04 04:05:29;;;;;;;2.27;2.17;;;22.80;74.50;;;;;;5069116;28;43823;-80
2023/09/04 04:07:58;;;;;;;3.60;2.63;;;22.90;74.20;;;;;;5068333;28;44380;-77
2023/09/04 04:10:27;;;;;;;3.13;2.90;;;22.80;74.10;;;;;;5067392;28;43484;-78
2023/09/04 04:12:58;;;;;;;5.53;3.70;;;22.80;74.20;;;;;;5070682;28;43484;-77
2023/09/04 04:15:26;;;;;;;12.57;5.40;;;22.70;74.40;;;;;;5066413;28;45358;-74
2023/09/04 04:17:54;;;;;;;11.87;5.97;;;22.70;74.70;;;;;;5061895;28;44704;-73
2023/09/04 04:20:22;;;;;;;18.20;6.63;;;22.70;74.70;;;;;;5064983;28;43455;-73
2023/09/04 04:22:51;;;;;;;15.57;6.77;;;22.70;74.80;;;;;;5058889;28;43392;-74
2023/09/04 04:25:19;;;;;;;17.77;7.43;;;22.60;74.80;;;;;;5061467;28;45402;-76
2023/09/04 04:27:48;;;;;;;21.27;8.60;;;22.60;75.20;;;;;;5066273;28;44317;-72
2023/09/04 04:30:17;;;;;;;26.93;8.73;;;22.60;75.20;;;;;;5060633;28;43487;-75
2023/09/04 04:32:45;;;;;;;22.50;8.63;;;22.70;74.90;;;;;;5067126;28;43722;-73
2023/09/04 04:35:14;;;;;;;22.40;10.20;;;22.70;74.50;;;;;;5065934;28;44939;-74
2023/09/04 04:37:42;;;;;;;27.77;9.63;;;22.70;74.30;;;;;;5065865;28;44995;-74
2023/09/04 04:40:11;;;;;;;27.73;10.67;;;22.70;74.40;;;;;;5063516;28;43440;-75
2023/09/04 04:42:41;;;;;;;30.63;11.03;;;22.70;74.60;;;;;;5063400;28;43665;-73
2023/09/04 04:45:12;;;;;;;27.83;10.60;;;22.70;74.60;;;;;;5058405;28;46017;-74
2023/09/04 04:47:40;;;;;;;29.20;11.00;;;22.70;74.50;;;;;;5065505;28;44795;-75
2023/09/04 04:50:10;;;;;;;28.27;11.73;;;22.70;74.70;;;;;;5075607;28;43502;-72
2023/09/04 04:52:38;;;;;;;31.43;12.27;;;22.60;74.70;;;;;;5065682;28;43411;-74
2023/09/04 04:55:07;;;;;;;25.87;11.37;;;22.60;74.70;;;;;;5063215;28;44126;-74
2023/09/04 04:57:36;;;;;;;30.00;12.00;;;22.60;74.80;;;;;;5065915;28;43715;-74
2023/09/04 05:00:06;;;;;;;25.33;11.37;;;22.60;75.60;;;;;;5065154;28;43352;-74
2023/09/04 05:02:37;;;;;;;25.50;11.67;;;22.50;74.90;;;;;;5066241;28;43961;-74
2023/09/04 05:05:06;;;;;;;27.60;12.63;;;22.50;75.10;;;;;;5065203;28;44858;-75
2023/09/04 05:07:34;;;;;;;31.53;12.27;;;22.50;75.30;;;;;;5065255;28;44043;-72
2023/09/04 05:10:03;;;;;;;28.20;12.40;;;22.50;75.10;;;;;;5064038;28;43555;-75
2023/09/04 05:12:31;;;;;;;26.90;11.83;;;22.60;74.70;;;;;;5060791;28;43494;-73
2023/09/04 05:14:59;;;;;;;25.87;11.80;;;22.80;74.30;;;;;;5059369;28;45782;-72
2023/09/04 05:17:29;;;;;;;25.23;11.63;;;22.80;74.00;;;;;;5065532;28;44786;-74
2023/09/04 05:19:59;;;;;;;25.33;11.63;;;22.80;73.80;;;;;;5065497;28;43411;-72
2023/09/04 05:22:27;;;;;;;26.53;11.10;;;22.80;74.00;;;;;;5065002;28;43479;-74
2023/09/04 05:24:59;;;;;;;24.03;11.67;;;22.70;74.10;;;;;;5061475;28;44676;-78
2023/09/04 05:27:27;;;;;;;27.63;11.10;;;22.60;74.10;;;;;;5066095;28;44651;-76
2023/09/04 05:29:55;;;;;;;21.23;10.57;;;22.60;74.10;;;;;;5063102;28;43386;-75
2023/09/04 05:32:23;;;;;;;18.40;9.90;;;22.60;74.20;;;;;;5070467;28;43472;-76
2023/09/04 05:34:59;;;;;;;17.57;9.83;;;22.60;74.40;;;;;;5069368;28;45667;-75
2023/09/04 05:37:27;;;;;;;19.40;9.77;;;22.50;74.30;;;;;;5065158;28;44900;-73
2023/09/04 05:39:55;;;;;;;18.57;10.50;;;22.50;74.00;;;;;;5062945;28;43380;-75
2023/09/04 05:42:23;;;;;;;18.50;9.50;;;22.50;74.10;;;;;;5065239;28;43596;-75
2023/09/04 05:44:52;;;;;;;16.40;8.97;;;22.50;74.40;;;;;;5062148;28;45115;-73
2023/09/04 05:47:20;;;;;;;16.87;9.23;;;22.40;74.30;;;;;;5060718;28;44376;-74
2023/09/04 05:49:48;;;;;;;16.60;9.13;;;22.40;73.90;;;;;;5066454;28;43300;-74
2023/09/04 05:52:17;;;;;;;13.40;8.40;;;22.50;73.70;;;;;;5066865;28;43436;-73
2023/09/04 05:54:45;;;;;;;13.10;8.43;;;22.60;73.30;;;;;;5065944;28;46036;-74
2023/09/04 05:57:13;;;;;;;15.07;8.77;;;22.60;73.00;;;;;;5064009;28;45020;-73
2023/09/04 05:59:43;;;;;;;13.93;8.50;;;22.60;73.00;;;;;;5069040;28;43406;-74
2023/09/04 06:02:11;;;;;;;12.27;7.87;;;22.60;73.20;;;;;;5068668;28;43419;-76
2023/09/04 06:04:39;;;;;;;13.27;7.90;;;22.60;73.10;;;;;;5066214;28;43688;-75
2023/09/04 06:07:10;;;;;;;13.37;8.27;;;22.60;72.90;;;;;;5065641;28;44515;-76
2023/09/04 06:09:39;;;;;;;8.53;7.03;;;22.60;73.10;;;;;;5063873;28;43535;-73
2023/09/04 06:12:11;;;;;;;9.67;7.20;;;22.50;73.50;;;;;;5085941;28;43534;-74
2023/09/04 06:14:39;;;;;;;10.97;6.90;;;22.50;73.20;;;;;;5069592;28;43630;-74
2023/09/04 06:17:07;;;;;;;10.53;7.50;;;22.50;73.00;;;;;;5069688;28;43400;-74
2023/09/04 06:19:36;;;;;;;9.80;7.23;;;22.50;73.00;;;;;;5058849;28;43534;-74
2023/09/04 06:22:04;;;;;;;8.60;6.77;;;22.50;73.50;;;;;;5067558;28;43501;-73
2023/09/04 06:24:33;;;;;;;10.90;6.83;;;22.40;73.60;;;;;;5069536;28;43615;-75
2023/09/04 06:27:02;;;;;;;8.07;6.33;;;22.40;73.30;;;;;;5068140;28;44478;-76
2023/09/04 06:29:30;;;;;;;10.07;6.80;;;22.40;73.10;;;;;;5067636;28;43434;-74
2023/09/04 06:31:58;;;;;;;8.00;6.40;;;22.50;72.90;;;;;;5068192;28;43533;-74
2023/09/04 06:34:26;;;;;;;8.97;6.10;;;22.60;72.50;;;;;;5068011;28;46217;-74
2023/09/04 06:36:54;;;;;;;9.50;6.70;;;22.70;72.00;;;;;;5067088;28;43403;-74
2023/09/04 06:39:22;;;;;;;10.27;6.40;;;22.80;71.80;;;;;;5061071;28;43456;-75
2023/09/04 06:41:50;;;;;;;9.73;6.63;;;22.70;71.70;;;;;;5061736;28;43479;-75
2023/09/04 06:44:22;;;;;;;6.40;5.60;;;22.70;72.10;;;;;;5055263;28;45682;-75
2023/09/04 06:46:50;;;;;;;7.50;6.27;;;22.70;72.30;;;;;;5064238;28;44410;-71
2023/09/04 06:49:18;;;;;;;7.10;6.07;;;22.60;72.30;;;;;;5061608;28;43484;-71
2023/09/04 06:51:46;;;;;;;7.00;5.70;;;22.60;72.40;;;;;;5066486;28;43444;-75
2023/09/04 06:54:14;;;;;;;5.77;5.23;;;22.60;72.70;;;;;;5061855;28;43988;-73
2023/09/04 06:56:42;;;;;;;8.13;6.13;;;22.50;72.90;;;;;;5062838;28;43522;-73
2023/09/04 06:59:10;;;;;;;8.00;6.10;;;22.40;72.70;;;;;;5066636;28;43527;-75
2023/09/04 07:01:39;;;;;;;6.50;5.80;;;22.40;72.60;;;;;;5069009;28;43435;-74
2023/09/04 07:04:08;;;;;;;6.30;5.70;;;22.50;72.90;;;;;;5068025;28;43599;-76
2023/09/04 07:06:36;;;;;;;6.13;5.53;;;22.40;73.20;;;;;;5066781;28;44707;-74
2023/09/04 07:09:04;;;;;;;6.67;5.97;;;22.40;73.10;;;;;;5067685;28;44005;-71
2023/09/04 07:11:32;;;;;;;6.77;5.50;;;22.40;73.00;;;;;;5067764;28;43566;-74
2023/09/04 07:14:00;;;;;;;6.57;5.83;;;22.40;73.00;;;;;;5060666;28;45867;-72
2023/09/04 07:16:31;;;;;;;6.53;5.47;;;22.40;73.20;;;;;;5061484;28;44898;-77
2023/09/04 07:19:10;;;;;;;6.07;5.47;;;22.30;73.90;;;;;;5062712;28;44045;-73
2023/09/04 07:21:40;;;;;;;6.10;5.50;;;22.30;73.10;;;;;;5061701;28;43520;-73
2023/09/04 07:24:08;;;;;;;5.73;5.17;;;22.40;72.80;;;;;;5068543;28;43892;-73
2023/09/04 07:26:36;;;;;;;5.57;5.00;;;22.50;72.50;;;;;;5068586;28;43418;-73
2023/09/04 07:29:04;;;;;;;5.90;5.30;;;22.60;72.10;;;;;;5062307;28;43473;-72
2023/09/04 07:31:33;;;;;;;5.13;4.70;;;22.70;71.70;;;;;;5067338;28;43393;-74
2023/09/04 07:34:02;;;;;;;5.73;4.97;;;22.70;71.40;;;;;;5066953;28;45593;-72
2023/09/04 07:36:32;;;;;;;5.97;5.47;;;22.70;71.50;;;;;;5065194;28;44836;-74
2023/09/04 07:39:00;;;;;;;5.03;4.63;;;22.70;71.80;;;;;;5068809;28;43451;-73
2023/09/04 07:41:28;;;;;;;5.33;4.97;;;22.60;71.90;;;;;;5064049;28;43527;-74
2023/09/04 07:43:56;;;;;;;4.80;4.50;;;22.60;72.00;;;;;;5061111;28;43893;-73
2023/09/04 07:46:24;;;;;;;4.93;4.63;;;22.50;72.00;;;;;;5068229;28;43910;-73
2023/09/04 07:48:52;;;;;;;4.47;4.27;;;22.50;72.50;;;;;;5066527;28;43422;-73
2023/09/04 07:51:20;;;;;;;4.97;4.67;;;22.50;72.50;;;;;;5057616;28;43888;-73
2023/09/04 07:54:04;;;;;;;5.47;5.00;;;22.40;72.50;;;;;;5065841;28;43841;-74
2023/09/04 07:56:32;;;;;;;4.47;4.17;;;22.50;72.60;;;;;;5066511;28;43421;-77
2023/09/04 07:59:10;;;;;;;4.77;4.43;;;22.40;72.70;;;;;;5061811;28;43368;-78
2023/09/04 08:01:38;;;;;;;5.17;4.77;;;22.40;73.00;;;;;;5066978;28;43515;-77
2023/09/04 08:04:07;;;;;;;4.77;4.47;;;22.40;72.90;;;;;;5059220;28;45814;-78
2023/09/04 08:06:35;;;;;;;4.83;4.53;;;22.40;72.80;;;;;;5060051;28;44986;-76
2023/09/04 08:09:04;;;;;;;4.57;4.27;;;22.40;72.80;;;;;;5066322;28;43446;-78
2023/09/04 08:11:32;;;;;;;4.60;4.30;;;22.30;72.90;;;;;;5068381;28;43409;-77
2023/09/04 08:14:00;;;;;;;4.97;4.60;;;22.30;73.10;;;;;;5065923;28;45338;-77
2023/09/04 08:16:29;;;;;;;4.17;3.97;;;22.30;73.00;;;;;;5067596;28;43419;-76
2023/09/04 08:18:57;;;;;;;4.37;4.03;;;22.30;72.80;;;;;;5067798;28;43972;-77
2023/09/04 08:21:25;;;;;;;4.67;4.37;;;22.50;72.60;;;;;;5066364;28;43538;-76
2023/09/04 08:23:53;;;;;;;4.60;4.30;;;22.60;72.20;;;;;;5066713;28;45925;-77
2023/09/04 08:26:23;;;;;;;5.07;4.67;;;22.70;71.70;;;;;;5065764;28;44248;-77
2023/09/04 08:28:51;;;;;;;4.43;4.13;;;22.70;71.40;;;;;;5055955;28;43422;-78
2023/09/04 08:31:19;;;;;;;4.13;3.90;;;22.70;71.60;;;;;;5063434;28;43468;-78
2023/09/04 08:33:47;;;;;;;3.83;3.70;;;22.60;71.90;;;;;;5059094;28;43900;-77
2023/09/04 08:36:15;;;;;;;4.83;4.53;;;22.60;72.00;;;;;;5061401;28;44864;-78
2023/09/04 08:38:43;;;;;;;4.33;3.93;;;22.50;72.00;;;;;;5062505;28;43526;-78
2023/09/04 08:41:11;;;;;;;4.40;4.10;;;22.50;72.20;;;;;;5062490;28;43510;-76
2023/09/04 08:43:40;;;;;;;4.70;4.30;;;22.50;72.50;;;;;;5064206;28;43935;-78
2023/09/04 08:46:08;;;;;;;4.40;4.10;;;22.40;72.60;;;;;;5061720;28;43419;-76
2023/09/04 08:48:39;;;;;;;4.43;4.10;;;22.40;72.70;;;;;;5057195;28;43345;-77
2023/09/04 08:51:16;;;;;;;4.27;4.00;;;22.40;72.60;;;;;;5057955;28;43997;-77
2023/09/04 08:53:45;;;;;;;4.43;4.13;;;22.40;72.80;;;;;;5065661;28;45986;-76
2023/09/04 08:56:13;;;;;;;4.00;3.80;;;22.40;73.00;;;;;;5066089;28;43399;-74
2023/09/04 08:58:43;;;;;;;4.13;3.93;;;22.30;73.00;;;;;;5065589;28;43464;-75
2023/09/04 09:01:14;;;;;;;4.40;4.10;;;22.30;73.00;;;;;;5062357;28;43949;-75
2023/09/04 09:03:43;;;;;;;3.80;3.60;;;22.40;72.80;;;;;;5058157;28;43636;-72
2023/09/04 09:06:11;;;;;;;3.87;3.70;;;22.60;72.50;;;;;;5065574;28;44680;-75
2023/09/04 09:08:39;;;;;;;4.47;4.17;;;22.60;72.10;;;;;;5066896;28;43384;-74
2023/09/04 09:11:07;;;;;;;3.63;3.50;;;22.70;72.00;;;;;;5065842;28;43486;-76
2023/09/04 09:13:36;;;;;;;3.60;3.40;;;22.70;72.70;;;;;;5060098;28;45575;-71
2023/09/04 09:16:05;;;;;;;4.00;3.80;;;22.60;72.20;;;;;;5060113;28;43462;-73
2023/09/04 09:18:38;;;;;;;3.93;3.73;;;22.60;72.50;;;;;;5060638;28;43434;-73
2023/09/04 09:21:21;;;;;;;4.13;3.87;;;22.50;72.50;;;;;;5064723;28;43882;-73
2023/09/04 09:24:09;;;;;;;3.90;3.60;;;22.50;72.70;;;;;;5060697;28;43608;-75
2023/09/04 09:26:38;;;;;;;3.80;3.70;;;22.40;72.80;;;;;;5069330;28;43970;-74
2023/09/04 09:29:10;;;;;;;4.20;3.90;;;22.40;73.10;;;;;;5069982;28;43387;-73
2023/09/04 09:31:41;;;;;;;3.47;3.37;;;22.40;73.10;;;;;;5069350;28;43520;-75
2023/09/04 09:34:09;;;;;;;3.60;3.50;;;22.40;73.20;;;;;;5064881;28;45741;-74
2023/09/04 09:36:37;;;;;;;4.03;3.90;;;22.40;73.30;;;;;;5068612;28;43742;-73
2023/09/04 09:39:06;;;;;;;3.70;3.60;;;22.40;73.40;;;;;;5071131;28;43465;-76
2023/09/04 09:41:34;;;;;;;3.70;3.50;;;22.30;73.50;;;;;;5073334;28;43414;-76
2023/09/04 09:44:04;;;;;;;3.63;3.50;;;22.40;73.40;;;;;;5071189;28;46079;-77
2023/09/04 09:46:34;;;;;;;3.67;3.47;;;22.40;73.20;;;;;;5070358;28;44058;-76
2023/09/04 09:49:03;;;;;;;3.70;3.60;;;22.50;72.80;;;;;;5094765;27;43458;-76
2023/09/04 09:51:32;;;;;;;3.47;3.30;;;22.60;72.40;;;;;;5067438;28;43896;-80
2023/09/04 09:54:01;;;;;;;3.53;3.43;;;22.70;72.40;;;;;;5067494;28;45345;-79
2023/09/04 09:56:29;;;;;;;3.77;3.67;;;22.60;72.70;;;;;;5070070;28;45441;-77
2023/09/04 09:58:57;;;;;;;3.77;3.57;;;22.60;73.00;;;;;;5059475;28;43469;-76
2023/09/04 10:01:27;;;;;;;3.83;3.70;;;22.50;73.00;;;;;;5063714;28;43389;-76
2023/09/04 10:03:55;;;;;;;3.80;3.60;;;22.50;73.00;;;;;;5071421;28;45835;-79
2023/09/04 10:06:27;;;;;;;3.73;3.63;;;22.50;73.40;;;;;;5069256;28;44680;-73
2023/09/04 10:08:55;;;;;;;3.20;3.10;;;22.50;73.60;;;;;;5068181;28;43451;-74
2023/09/04 10:11:23;;;;;;;3.37;3.27;;;22.50;73.80;;;;;;5062361;28;43572;-72
2023/09/04 10:13:55;;;;;;;3.50;3.40;;;22.40;73.50;;;;;;5064418;28;45706;-74
2023/09/04 10:16:28;;;;;;;3.17;3.07;;;22.50;73.50;;;;;;5061981;28;44336;-76
2023/09/04 10:18:59;;;;;;;3.20;3.10;;;22.50;73.10;;;;;;5064668;28;43396;-73
2023/09/04 10:21:30;;;;;;;3.43;3.33;;;22.50;73.00;;;;;;5064745;28;43551;-73
2023/09/04 10:24:00;;;;;;;3.50;3.40;;;22.60;73.40;;;;;;5067993;28;45991;-73
2023/09/04 10:26:35;;;;;;;3.03;2.93;;;22.50;73.30;;;;;;5067686;28;44342;-73
2023/09/04 10:29:05;;;;;;;3.00;2.90;;;22.50;73.10;;;;;;5069848;28;43414;-73
2023/09/04 10:31:35;;;;;;;3.43;3.33;;;22.50;73.40;;;;;;5069786;28;43387;-72
2023/09/04 10:34:03;;;;;;;2.90;2.80;;;22.50;73.60;;;;;;5059803;28;45529;-73
2023/09/04 10:36:33;;;;;;;3.10;3.00;;;22.50;73.80;;;;;;5067793;28;44722;-75
2023/09/04 10:39:02;;;;;;;3.63;3.47;;;22.50;73.40;;;;;;5066027;28;43434;-75
2023/09/04 10:41:30;;;;;;;3.10;2.90;;;22.50;73.50;;;;;;5064412;28;43474;-74
2023/09/04 10:43:58;;;;;;;3.00;2.90;;;22.50;73.90;;;;;;5068325;28;43797;-73
2023/09/04 10:46:27;;;;;;;3.10;3.00;;;22.40;73.90;;;;;;5065728;28;44664;-73
2023/09/04 10:48:55;;;;;;;3.43;3.33;;;22.40;74.00;;;;;;5065416;28;43503;-74
2023/09/04 10:51:28;;;;;;;3.40;3.20;;;22.40;73.50;;;;;;5067602;28;43382;-74
2023/09/04 10:53:57;;;;;;;3.30;3.20;;;22.40;73.10;;;;;;5067293;28;45350;-76
2023/09/04 10:56:26;;;;;;;3.37;3.27;;;22.50;72.90;;;;;;5059690;28;44127;-74
2023/09/04 10:59:02;;;;;;;3.17;3.07;;;22.70;72.50;;;;;;5063150;28;43491;-74
2023/09/04 11:01:34;;;;;;;3.00;2.90;;;22.70;72.30;;;;;;5067674;28;43989;-74
2023/09/04 11:04:04;;;;;;;3.13;3.03;;;22.70;72.80;;;;;;5055829;28;45709;-75
2023/09/04 11:06:36;;;;;;;2.90;2.80;;;22.70;73.20;;;;;;5065904;28;44690;-76
2023/09/04 11:09:06;;;;;;;3.00;2.90;;;22.60;73.20;;;;;;5064939;28;43893;-75
2023/09/04 11:11:35;;;;;;;3.10;3.00;;;22.60;72.90;;;;;;5065241;28;44139;-76
2023/09/04 11:14:06;;;;;;;3.00;2.90;;;22.60;73.50;;;;;;5062925;28;43622;-75
2023/09/04 11:16:38;;;;;;;2.97;2.97;;;22.60;73.80;;;;;;5065463;28;44900;-73
2023/09/04 11:19:07;;;;;;;2.90;2.80;;;22.50;73.80;;;;;;5060956;28;43430;-73
2023/09/04 11:21:36;;;;;;;3.07;2.97;;;22.40;73.20;;;;;;5059099;28;43450;-72
2023/09/04 11:24:08;;;;;;;3.27;3.17;;;22.40;73.70;;;;;;5063931;28;44124;-73
2023/09/04 11:26:36;;;;;;;2.77;2.77;;;22.40;73.80;;;;;;5062583;28;43423;-74
2023/09/04 11:29:05;;;;;;;2.90;2.90;;;22.40;73.90;;;;;;5063188;28;43843;-78
2023/09/04 11:31:34;;;;;;;2.80;2.80;;;22.40;73.70;;;;;;5062865;28;43433;-72
2023/09/04 11:34:04;;;;;;;2.90;2.80;;;22.50;73.30;;;;;;5063308;28;45994;-72
2023/09/04 11:36:32;;;;;;;2.70;2.70;;;22.50;72.90;;;;;;5061187;28;43566;-74
2023/09/04 11:39:06;;;;;;;2.73;2.63;;;22.60;72.50;;;;;;5065581;28;43363;-72
2023/09/04 11:41:34;;;;;;;3.30;3.20;;;22.70;72.30;;;;;;5067877;28;43791;-74
2023/09/04 11:44:04;;;;;;;2.70;2.70;;;22.70;72.70;;;;;;5067943;28;43932;-75
2023/09/04 11:46:34;;;;;;;2.60;2.60;;;22.70;73.10;;;;;;5062001;28;43391;-74
2023/09/04 11:49:03;;;;;;;3.07;2.97;;;22.60;73.20;;;;;;5064833;28;43438;-72
2023/09/04 11:51:31;;;;;;;2.63;2.57;;;22.60;72.90;;;;;;5061349;28;43496;-75
2023/09/04 11:54:06;;;;;;;3.03;2.93;;;22.60;73.30;;;;;;5063769;28;45893;-75
2023/09/04 11:56:34;;;;;;;2.60;2.60;;;22.50;73.60;;;;;;5062946;28;43486;-74
2023/09/04 11:59:04;;;;;;;2.90;2.80;;;22.50;73.70;;;;;;5068089;28;43356;-73
2023/09/04 12:01:34;;;;;;;2.57;2.57;;;22.40;73.60;;;;;;5066942;28;43445;-75
2023/09/04 12:04:03;;;;;;;2.50;2.50;;;22.40;73.20;;;;;;5064540;28;43863;-73
2023/09/04 12:06:33;;;;;;;2.70;2.67;;;22.50;73.00;;;;;;5064146;28;43449;-74
2023/09/04 12:09:02;;;;;;;2.57;2.57;;;22.60;72.70;;;;;;5065242;28;43913;-75
2023/09/04 12:11:31;;;;;;;2.90;2.90;;;22.60;72.90;;;;;;5059789;28;43436;-75
2023/09/04 12:14:08;;;;;;;2.90;2.80;;;22.60;73.30;;;;;;5063426;28;45746;-73
2023/09/04 12:16:36;;;;;;;2.57;2.57;;;22.60;73.60;;;;;;5060410;28;44440;-74
2023/09/04 12:19:07;;;;;;;2.70;2.60;;;22.60;72.90;;;;;;5064319;28;43427;-74
2023/09/04 12:21:35;;;;;;;2.53;2.53;;;22.60;73.30;;;;;;5066598;28;43487;-74
2023/09/04 12:24:03;;;;;;;3.07;2.97;;;22.60;73.60;;;;;;5060870;28;45668;-74
2023/09/04 12:26:32;;;;;;;2.70;2.70;;;22.50;73.60;;;;;;5062761;28;43532;-74
2023/09/04 12:29:01;;;;;;;2.73;2.63;;;22.50;73.30;;;;;;5068026;28;43379;-75
2023/09/04 12:31:29;;;;;;;2.57;2.57;;;22.50;73.50;;;;;;5064644;28;43508;-74
2023/09/04 12:33:57;;;;;;;2.50;2.50;;;22.50;73.80;;;;;;5065787;28;47099;-74
2023/09/04 12:36:25;;;;;;;2.53;2.53;;;22.50;73.90;;;;;;5065509;28;44854;-74
2023/09/04 12:38:54;;;;;;;2.73;2.70;;;22.40;73.70;;;;;;5065442;28;43442;-74
2023/09/04 12:41:22;;;;;;;2.70;2.60;;;22.40;73.50;;;;;;5065994;28;43412;-73
2023/09/04 12:43:52;;;;;;;2.80;2.70;;;22.40;73.90;;;;;;5063442;28;46396;-74
2023/09/04 12:46:21;;;;;;;2.80;2.80;;;22.40;74.00;;;;;;5058945;28;43544;-75
2023/09/04 12:48:49;;;;;;;2.50;2.50;;;22.40;73.90;;;;;;5063094;28;43984;-75
2023/09/04 12:51:17;;;;;;;2.47;2.47;;;22.40;73.50;;;;;;5065447;28;44267;-73
2023/09/04 12:53:46;;;;;;;2.40;2.40;;;22.50;73.20;;;;;;5062969;28;43928;-73
2023/09/04 12:56:14;;;;;;;2.33;2.23;;;22.60;72.80;;;;;;5058589;28;45464;-74